Terminal Aerodrome Forecast
Issued by NWS

Home | Current Version | Previous Version | Text Only | Print | Product List | Glossary On
Versions: 1 2 3 4 5 6 7 8 9 10 11 12 13 14 15 16 17 18 19 20 21 22 23 24
000
FTUS43 KGRB 181742
TAFMTW
TAF
KMTW 181742Z 1818/1918 29011G18KT P6SM BKN035
     FM182300 28006KT P6SM SCT035 BKN100
     FM191000 29004KT P6SM SCT150
     FM191600 24009KT P6SM SCT200=

USA.gov is the U.S. government's official web portal to all federal, state and local government web resources and services.